sensor_id;sensor_type;location;lat;lon;timestamp;noise_LAeq;noise_LA_min;noise_LA_max;noise_LA01;noise_LA95
70740;Laerm;58330;51.888;11.052;2023-04-06T00:02:24;33.13;31.80;34.42;;
70740;Laerm;58330;51.888;11.052;2023-04-06T00:04:50;33.13;31.90;34.46;;
70740;Laerm;58330;51.888;11.052;2023-04-06T00:07:17;33.15;31.83;34.27;;
70740;Laerm;58330;51.888;11.052;2023-04-06T00:09:43;33.16;31.96;34.41;;
70740;Laerm;58330;51.888;11.052;2023-04-06T00:12:11;33.15;31.80;34.49;;
70740;Laerm;58330;51.888;11.052;2023-04-06T00:14:37;33.14;31.60;34.20;;
70740;Laerm;58330;51.888;11.052;2023-04-06T00:17:03;33.11;31.85;34.36;;
70740;Laerm;58330;51.888;11.052;2023-04-06T00:19:30;33.07;31.80;34.27;;
70740;Laerm;58330;51.888;11.052;2023-04-06T00:21:56;33.02;31.53;34.13;;
70740;Laerm;58330;51.888;11.052;2023-04-06T00:24:23;32.99;31.58;39.88;;
70740;Laerm;58330;51.888;11.052;2023-04-06T00:26:49;32.94;31.41;34.13;;
70740;Laerm;58330;51.888;11.052;2023-04-06T00:29:16;32.83;31.57;34.15;;
70740;Laerm;58330;51.888;11.052;2023-04-06T00:31:43;32.78;31.27;33.99;;
70740;Laerm;58330;51.888;11.052;2023-04-06T00:34:09;32.76;31.44;34.03;;
70740;Laerm;58330;51.888;11.052;2023-04-06T00:36:36;32.72;31.37;34.06;;
70740;Laerm;58330;51.888;11.052;2023-04-06T00:39:02;32.71;31.46;34.12;;
70740;Laerm;58330;51.888;11.052;2023-04-06T00:41:28;32.69;31.41;34.08;;
70740;Laerm;58330;51.888;11.052;2023-04-06T00:43:55;32.67;31.17;33.75;;
70740;Laerm;58330;51.888;11.052;2023-04-06T00:46:22;32.65;31.31;33.85;;
70740;Laerm;58330;51.888;11.052;2023-04-06T00:48:49;32.64;31.33;33.87;;
70740;Laerm;58330;51.888;11.052;2023-04-06T00:51:15;32.64;31.29;33.98;;
70740;Laerm;58330;51.888;11.052;2023-04-06T00:53:41;32.62;31.18;33.90;;
70740;Laerm;58330;51.888;11.052;2023-04-06T00:56:08;32.60;31.29;33.76;;
70740;Laerm;58330;51.888;11.052;2023-04-06T00:58:34;32.57;31.16;33.90;;
70740;Laerm;58330;51.888;11.052;2023-04-06T01:01:03;32.56;31.20;34.08;;
70740;Laerm;58330;51.888;11.052;2023-04-06T01:03:30;32.57;31.08;34.02;;
70740;Laerm;58330;51.888;11.052;2023-04-06T01:05:57;32.57;31.22;34.02;;
70740;Laerm;58330;51.888;11.052;2023-04-06T01:08:23;32.56;31.10;33.68;;
70740;Laerm;58330;51.888;11.052;2023-04-06T01:10:50;32.55;31.22;33.67;;
70740;Laerm;58330;51.888;11.052;2023-04-06T01:13:16;32.57;31.21;34.31;;
70740;Laerm;58330;51.888;11.052;2023-04-06T01:15:42;32.58;31.25;33.68;;
70740;Laerm;58330;51.888;11.052;2023-04-06T01:18:09;32.60;31.36;33.82;;
70740;Laerm;58330;51.888;11.052;2023-04-06T01:20:37;32.66;31.39;33.78;;
70740;Laerm;58330;51.888;11.052;2023-04-06T01:23:05;32.69;31.44;33.99;;
70740;Laerm;58330;51.888;11.052;2023-04-06T01:25:31;32.71;31.00;34.03;;
70740;Laerm;58330;51.888;11.052;2023-04-06T01:27:58;32.70;31.34;33.92;;
70740;Laerm;58330;51.888;11.052;2023-04-06T01:30:24;32.67;31.42;33.84;;
70740;Laerm;58330;51.888;11.052;2023-04-06T01:32:51;32.60;31.14;33.91;;
70740;Laerm;58330;51.888;11.052;2023-04-06T01:35:17;32.59;31.29;33.86;;
70740;Laerm;58330;51.888;11.052;2023-04-06T01:37:44;32.57;31.39;33.94;;
70740;Laerm;58330;51.888;11.052;2023-04-06T01:40:12;32.59;31.34;33.85;;
70740;Laerm;58330;51.888;11.052;2023-04-06T01:42:38;32.61;31.04;33.81;;
70740;Laerm;58330;51.888;11.052;2023-04-06T01:45:05;32.60;31.10;33.94;;
70740;Laerm;58330;51.888;11.052;2023-04-06T01:47:32;32.59;31.24;33.78;;
70740;Laerm;58330;51.888;11.052;2023-04-06T01:49:58;32.60;31.38;33.83;;
70740;Laerm;58330;51.888;11.052;2023-04-06T01:52:25;32.59;31.16;33.85;;
70740;Laerm;58330;51.888;11.052;2023-04-06T01:54:51;32.59;31.26;33.92;;
70740;Laerm;58330;51.888;11.052;2023-04-06T01:57:19;32.57;31.38;33.77;;
70740;Laerm;58330;51.888;11.052;2023-04-06T01:59:46;32.58;31.29;33.76;;
70740;Laerm;58330;51.888;11.052;2023-04-06T02:02:12;32.59;31.23;33.78;;
70740;Laerm;58330;51.888;11.052;2023-04-06T02:04:39;32.59;31.26;33.76;;
70740;Laerm;58330;51.888;11.052;2023-04-06T02:07:05;32.60;31.19;33.89;;
70740;Laerm;58330;51.888;11.052;2023-04-06T02:09:31;32.59;31.12;33.71;;
70740;Laerm;58330;51.888;11.052;2023-04-06T02:11:58;32.59;31.39;33.93;;
70740;Laerm;58330;51.888;11.052;2023-04-06T02:14:26;32.60;31.34;33.90;;
70740;Laerm;58330;51.888;11.052;2023-04-06T02:16:53;32.59;31.44;33.85;;
70740;Laerm;58330;51.888;11.052;2023-04-06T02:19:19;32.62;31.22;33.74;;
70740;Laerm;58330;51.888;11.052;2023-04-06T02:21:45;32.63;31.42;33.99;;
70740;Laerm;58330;51.888;11.052;2023-04-06T02:24:12;32.63;31.13;33.83;;
70740;Laerm;58330;51.888;11.052;2023-04-06T02:26:38;32.64;31.24;33.77;;
70740;Laerm;58330;51.888;11.052;2023-04-06T02:29:04;32.68;31.45;34.02;;
70740;Laerm;58330;51.888;11.052;2023-04-06T02:31:32;32.72;31.59;34.03;;
70740;Laerm;58330;51.888;11.052;2023-04-06T02:33:59;32.78;31.45;33.98;;
70740;Laerm;58330;51.888;11.052;2023-04-06T02:36:25;32.82;31.21;34.19;;
70740;Laerm;58330;51.888;11.052;2023-04-06T02:38:51;32.85;31.68;34.05;;
70740;Laerm;58330;51.888;11.052;2023-04-06T02:41:17;32.90;31.46;34.22;;
70740;Laerm;58330;51.888;11.052;2023-04-06T02:43:44;32.91;31.52;34.10;;
70740;Laerm;58330;51.888;11.052;2023-04-06T02:46:10;32.91;31.49;34.16;;
70740;Laerm;58330;51.888;11.052;2023-04-06T02:48:38;32.94;31.51;34.06;;
70740;Laerm;58330;51.888;11.052;2023-04-06T02:51:04;32.95;31.66;34.04;;
70740;Laerm;58330;51.888;11.052;2023-04-06T02:53:31;32.97;31.83;34.25;;
70740;Laerm;58330;51.888;11.052;2023-04-06T02:55:57;32.98;31.53;34.34;;
70740;Laerm;58330;51.888;11.052;2023-04-06T02:58:23;33.01;31.45;34.37;;
70740;Laerm;58330;51.888;11.052;2023-04-06T03:00:50;33.03;31.74;34.18;;
70740;Laerm;58330;51.888;11.052;2023-04-06T03:03:16;33.07;31.57;34.51;;
70740;Laerm;58330;51.888;11.052;2023-04-06T03:05:44;33.67;31.91;60.74;;
70740;Laerm;58330;51.888;11.052;2023-04-06T03:08:10;33.17;31.98;34.61;;
70740;Laerm;58330;51.888;11.052;2023-04-06T03:10:37;33.16;31.92;34.36;;
70740;Laerm;58330;51.888;11.052;2023-04-06T03:13:03;33.17;31.76;34.47;;
70740;Laerm;58330;51.888;11.052;2023-04-06T03:15:30;33.19;32.01;34.39;;
70740;Laerm;58330;51.888;11.052;2023-04-06T03:17:56;33.19;31.89;34.53;;
70740;Laerm;58330;51.888;11.052;2023-04-06T03:20:23;33.17;31.86;34.55;;
70740;Laerm;58330;51.888;11.052;2023-04-06T03:22:51;33.19;31.90;34.46;;
70740;Laerm;58330;51.888;11.052;2023-04-06T03:25:17;33.19;31.71;34.37;;
70740;Laerm;58330;51.888;11.052;2023-04-06T03:27:43;33.23;31.89;34.57;;
70740;Laerm;58330;51.888;11.052;2023-04-06T03:30:10;33.22;31.93;34.85;;
70740;Laerm;58330;51.888;11.052;2023-04-06T03:32:36;33.22;32.02;34.55;;
70740;Laerm;58330;51.888;11.052;2023-04-06T03:35:03;33.19;31.77;34.61;;
70740;Laerm;58330;51.888;11.052;2023-04-06T03:37:30;33.19;31.93;34.39;;
70740;Laerm;58330;51.888;11.052;2023-04-06T03:39:57;33.18;31.93;34.47;;
70740;Laerm;58330;51.888;11.052;2023-04-06T03:42:23;33.19;31.84;34.43;;
70740;Laerm;58330;51.888;11.052;2023-04-06T03:44:50;33.16;31.68;34.28;;
70740;Laerm;58330;51.888;11.052;2023-04-06T03:47:16;33.15;31.80;34.45;;
70740;Laerm;58330;51.888;11.052;2023-04-06T03:49:42;33.16;31.88;34.22;;
70740;Laerm;58330;51.888;11.052;2023-04-06T03:52:08;33.16;31.62;34.46;;
70740;Laerm;58330;51.888;11.052;2023-04-06T03:54:35;33.18;31.33;34.46;;
70740;Laerm;58330;51.888;11.052;2023-04-06T03:57:03;33.18;31.81;34.49;;
70740;Laerm;58330;51.888;11.052;2023-04-06T03:59:30;33.19;31.82;34.50;;
70740;Laerm;58330;51.888;11.052;2023-04-06T04:01:56;33.25;31.99;34.32;;
70740;Laerm;58330;51.888;11.052;2023-04-06T04:04:22;33.28;32.03;34.62;;
70740;Laerm;58330;51.888;11.052;2023-04-06T04:06:48;33.26;31.88;34.77;;
70740;Laerm;58330;51.888;11.052;2023-04-06T04:09:15;33.27;31.90;34.80;;
70740;Laerm;58330;51.888;11.052;2023-04-06T04:11:41;33.24;31.95;34.36;;
70740;Laerm;58330;51.888;11.052;2023-04-06T04:14:09;33.29;31.85;34.70;;
70740;Laerm;58330;51.888;11.052;2023-04-06T04:16:35;33.28;31.93;34.61;;
70740;Laerm;58330;51.888;11.052;2023-04-06T04:19:01;33.23;32.02;34.46;;
70740;Laerm;58330;51.888;11.052;2023-04-06T04:21:29;33.22;31.90;34.64;;
70740;Laerm;58330;51.888;11.052;2023-04-06T04:23:56;33.25;31.86;34.77;;
70740;Laerm;58330;51.888;11.052;2023-04-06T04:26:22;33.32;31.80;35.11;;
70740;Laerm;58330;51.888;11.052;2023-04-06T04:28:48;33.31;31.94;35.49;;
70740;Laerm;58330;51.888;11.052;2023-04-06T04:31:16;33.31;32.02;34.55;;
70740;Laerm;58330;51.888;11.052;2023-04-06T04:33:43;33.31;31.90;34.48;;
70740;Laerm;58330;51.888;11.052;2023-04-06T04:36:09;33.34;32.01;34.72;;
70740;Laerm;58330;51.888;11.052;2023-04-06T04:38:36;33.33;31.75;34.55;;
70740;Laerm;58330;51.888;11.052;2023-04-06T04:41:02;33.34;32.07;34.49;;
70740;Laerm;58330;51.888;11.052;2023-04-06T04:43:28;33.38;31.47;35.00;;
70740;Laerm;58330;51.888;11.052;2023-04-06T04:45:54;33.38;32.06;35.26;;
70740;Laerm;58330;51.888;11.052;2023-04-06T04:48:22;33.67;31.99;36.24;;
70740;Laerm;58330;51.888;11.052;2023-04-06T04:50:48;33.36;31.91;34.82;;
70740;Laerm;58330;51.888;11.052;2023-04-06T04:53:15;33.35;32.00;34.59;;
70740;Laerm;58330;51.888;11.052;2023-04-06T04:55:41;33.40;32.14;34.77;;
70740;Laerm;58330;51.888;11.052;2023-04-06T04:58:07;33.43;31.91;35.80;;
70740;Laerm;58330;51.888;11.052;2023-04-06T05:00:36;33.82;32.01;59.51;;
70740;Laerm;58330;51.888;11.052;2023-04-06T05:03:02;33.46;32.13;34.89;;
70740;Laerm;58330;51.888;11.052;2023-04-06T05:05:31;33.45;32.22;34.58;;
70740;Laerm;58330;51.888;11.052;2023-04-06T05:07:58;33.46;32.13;34.71;;
70740;Laerm;58330;51.888;11.052;2023-04-06T05:10:26;33.67;32.32;39.03;;
70740;Laerm;58330;51.888;11.052;2023-04-06T05:12:52;33.51;32.22;34.94;;
70740;Laerm;58330;51.888;11.052;2023-04-06T05:15:18;33.52;31.75;34.63;;
70740;Laerm;58330;51.888;11.052;2023-04-06T05:17:45;33.55;32.26;34.85;;
70740;Laerm;58330;51.888;11.052;2023-04-06T05:20:11;33.53;32.30;34.72;;
70740;Laerm;58330;51.888;11.052;2023-04-06T05:22:39;33.50;32.08;35.10;;
70740;Laerm;58330;51.888;11.052;2023-04-06T05:25:05;33.52;32.14;37.41;;
70740;Laerm;58330;51.888;11.052;2023-04-06T05:27:31;33.38;32.02;34.72;;
70740;Laerm;58330;51.888;11.052;2023-04-06T05:29:58;33.29;31.88;34.59;;
70740;Laerm;58330;51.888;11.052;2023-04-06T05:32:24;33.11;31.80;34.67;;
70740;Laerm;58330;51.888;11.052;2023-04-06T05:34:50;32.92;31.65;34.17;;
70740;Laerm;58330;51.888;11.052;2023-04-06T05:37:17;32.85;31.33;34.16;;
70740;Laerm;58330;51.888;11.052;2023-04-06T05:39:44;32.76;31.36;37.68;;
70740;Laerm;58330;51.888;11.052;2023-04-06T05:42:11;32.73;31.07;39.34;;
70740;Laerm;58330;51.888;11.052;2023-04-06T05:44:37;32.65;31.38;38.11;;
70740;Laerm;58330;51.888;11.052;2023-04-06T05:47:04;32.60;31.11;34.17;;
70740;Laerm;58330;51.888;11.052;2023-04-06T05:49:30;32.57;31.21;35.37;;
70740;Laerm;58330;51.888;11.052;2023-04-06T05:51:56;32.51;31.04;33.83;;
70740;Laerm;58330;51.888;11.052;2023-04-06T05:54:22;32.56;31.16;33.87;;
70740;Laerm;58330;51.888;11.052;2023-04-06T05:56:50;32.53;31.03;33.89;;
70740;Laerm;58330;51.888;11.052;2023-04-06T05:59:16;32.45;30.87;33.67;;
70740;Laerm;58330;51.888;11.052;2023-04-06T06:01:43;32.34;30.91;33.55;;
70740;Laerm;58330;51.888;11.052;2023-04-06T06:04:09;32.31;30.90;33.87;;
70740;Laerm;58330;51.888;11.052;2023-04-06T06:06:35;32.04;30.85;34.45;;
70740;Laerm;58330;51.888;11.052;2023-04-06T06:09:03;32.48;30.52;40.85;;
70740;Laerm;58330;51.888;11.052;2023-04-06T06:11:30;32.27;30.64;37.55;;
70740;Laerm;58330;51.888;11.052;2023-04-06T06:13:59;31.82;30.46;34.07;;
70740;Laerm;58330;51.888;11.052;2023-04-06T06:16:25;32.01;30.23;34.23;;
70740;Laerm;58330;51.888;11.052;2023-04-06T06:18:51;32.00;30.57;35.14;;
70740;Laerm;58330;51.888;11.052;2023-04-06T06:21:18;32.25;30.61;35.26;;
70740;Laerm;58330;51.888;11.052;2023-04-06T06:23:44;32.02;30.68;34.63;;
70740;Laerm;58330;51.888;11.052;2023-04-06T06:26:13;32.30;30.81;37.59;;
70740;Laerm;58330;51.888;11.052;2023-04-06T06:28:39;31.79;30.38;33.53;;
70740;Laerm;58330;51.888;11.052;2023-04-06T06:31:07;31.99;30.58;33.92;;
70740;Laerm;58330;51.888;11.052;2023-04-06T06:33:33;31.83;30.42;34.11;;
70740;Laerm;58330;51.888;11.052;2023-04-06T06:35:59;31.71;30.30;34.10;;
70740;Laerm;58330;51.888;11.052;2023-04-06T06:38:26;31.76;30.37;33.76;;
70740;Laerm;58330;51.888;11.052;2023-04-06T06:40:52;31.77;30.25;34.77;;
70740;Laerm;58330;51.888;11.052;2023-04-06T06:43:18;31.75;30.26;33.31;;
70740;Laerm;58330;51.888;11.052;2023-04-06T06:45:45;31.62;30.24;34.89;;
70740;Laerm;58330;51.888;11.052;2023-04-06T06:48:13;32.64;30.39;41.18;;
70740;Laerm;58330;51.888;11.052;2023-04-06T06:50:39;31.44;29.94;33.34;;
70740;Laerm;58330;51.888;11.052;2023-04-06T06:53:05;31.44;30.07;32.86;;
70740;Laerm;58330;51.888;11.052;2023-04-06T06:55:32;31.48;29.82;33.73;;
70740;Laerm;58330;51.888;11.052;2023-04-06T06:57:58;31.50;30.10;35.74;;
70740;Laerm;58330;51.888;11.052;2023-04-06T07:00:24;31.97;30.22;36.65;;
70740;Laerm;58330;51.888;11.052;2023-04-06T07:02:51;31.54;30.13;33.53;;
70740;Laerm;58330;51.888;11.052;2023-04-06T07:05:18;31.48;30.01;33.59;;
70740;Laerm;58330;51.888;11.052;2023-04-06T07:07:45;31.46;29.99;34.16;;
70740;Laerm;58330;51.888;11.052;2023-04-06T07:10:11;31.64;30.28;44.32;;
70740;Laerm;58330;51.888;11.052;2023-04-06T07:12:38;31.82;30.04;35.72;;
70740;Laerm;58330;51.888;11.052;2023-04-06T07:15:05;31.75;30.06;35.75;;
70740;Laerm;58330;51.888;11.052;2023-04-06T07:17:31;31.62;30.09;37.20;;
70740;Laerm;58330;51.888;11.052;2023-04-06T07:19:57;31.78;30.10;37.04;;
70740;Laerm;58330;51.888;11.052;2023-04-06T07:22:25;31.65;30.21;38.86;;
70740;Laerm;58330;51.888;11.052;2023-04-06T07:24:51;31.88;30.36;37.85;;
70740;Laerm;58330;51.888;11.052;2023-04-06T07:27:18;31.64;30.33;35.13;;
70740;Laerm;58330;51.888;11.052;2023-04-06T07:29:44;31.54;29.96;35.07;;
70740;Laerm;58330;51.888;11.052;2023-04-06T07:32:11;34.58;30.44;41.37;;
70740;Laerm;58330;51.888;11.052;2023-04-06T07:34:37;31.56;30.23;33.52;;
70740;Laerm;58330;51.888;11.052;2023-04-06T07:37:03;31.30;29.85;33.46;;
70740;Laerm;58330;51.888;11.052;2023-04-06T07:39:31;31.32;29.81;33.12;;
70740;Laerm;58330;51.888;11.052;2023-04-06T07:41:58;31.10;29.69;33.39;;
70740;Laerm;58330;51.888;11.052;2023-04-06T07:44:24;31.11;29.75;33.23;;
70740;Laerm;58330;51.888;11.052;2023-04-06T07:46:50;31.29;29.99;33.30;;
70740;Laerm;58330;51.888;11.052;2023-04-06T07:49:17;31.32;29.93;33.20;;
70740;Laerm;58330;51.888;11.052;2023-04-06T07:51:43;31.11;29.39;35.22;;
70740;Laerm;58330;51.888;11.052;2023-04-06T07:54:10;31.18;29.65;32.88;;
70740;Laerm;58330;51.888;11.052;2023-04-06T07:56:37;30.88;29.39;32.74;;
70740;Laerm;58330;51.888;11.052;2023-04-06T07:59:04;31.08;29.39;34.30;;
70740;Laerm;58330;51.888;11.052;2023-04-06T08:01:30;30.93;29.49;32.83;;
70740;Laerm;58330;51.888;11.052;2023-04-06T08:03:56;30.93;29.58;32.32;;
70740;Laerm;58330;51.888;11.052;2023-04-06T08:06:24;30.96;29.66;32.41;;
70740;Laerm;58330;51.888;11.052;2023-04-06T08:08:51;31.02;29.59;33.80;;
70740;Laerm;58330;51.888;11.052;2023-04-06T08:11:17;30.82;29.36;32.20;;
70740;Laerm;58330;51.888;11.052;2023-04-06T08:13:45;31.06;29.51;32.71;;
70740;Laerm;58330;51.888;11.052;2023-04-06T08:16:11;30.99;29.40;33.53;;
70740;Laerm;58330;51.888;11.052;2023-04-06T08:18:37;30.88;29.46;33.05;;
70740;Laerm;58330;51.888;11.052;2023-04-06T08:21:04;31.16;29.69;36.13;;
70740;Laerm;58330;51.888;11.052;2023-04-06T08:23:30;30.96;29.51;32.88;;
70740;Laerm;58330;51.888;11.052;2023-04-06T08:25:56;31.20;29.69;34.32;;
70740;Laerm;58330;51.888;11.052;2023-04-06T08:28:23;31.11;29.56;33.27;;
70740;Laerm;58330;51.888;11.052;2023-04-06T08:30:51;31.24;29.84;34.56;;
70740;Laerm;58330;51.888;11.052;2023-04-06T08:33:17;31.20;29.70;34.05;;
70740;Laerm;58330;51.888;11.052;2023-04-06T08:35:43;31.13;29.85;32.61;;
70740;Laerm;58330;51.888;11.052;2023-04-06T08:38:10;31.14;29.89;32.98;;
70740;Laerm;58330;51.888;11.052;2023-04-06T08:40:36;31.03;29.28;33.52;;
70740;Laerm;58330;51.888;11.052;2023-04-06T08:43:03;30.81;29.33;37.07;;
70740;Laerm;58330;51.888;11.052;2023-04-06T08:45:33;30.81;29.32;33.48;;
70740;Laerm;58330;51.888;11.052;2023-04-06T08:48:01;30.84;28.95;33.44;;
70740;Laerm;58330;51.888;11.052;2023-04-06T08:50:29;30.85;29.11;33.11;;
70740;Laerm;58330;51.888;11.052;2023-04-06T08:52:55;30.83;29.38;34.54;;
70740;Laerm;58330;51.888;11.052;2023-04-06T08:55:22;30.62;29.14;33.31;;
70740;Laerm;58330;51.888;11.052;2023-04-06T08:57:49;30.67;29.17;33.02;;
70740;Laerm;58330;51.888;11.052;2023-04-06T09:00:18;30.66;29.27;34.84;;
70740;Laerm;58330;51.888;11.052;2023-04-06T09:02:45;30.49;28.97;32.61;;
70740;Laerm;58330;51.888;11.052;2023-04-06T09:05:13;30.58;28.84;33.55;;
70740;Laerm;58330;51.888;11.052;2023-04-06T09:07:40;30.57;29.12;32.18;;
70740;Laerm;58330;51.888;11.052;2023-04-06T09:10:07;30.70;29.13;34.50;;
70740;Laerm;58330;51.888;11.052;2023-04-06T09:12:34;30.76;29.32;33.97;;
70740;Laerm;58330;51.888;11.052;2023-04-06T09:15:01;30.71;29.16;35.18;;
70740;Laerm;58330;51.888;11.052;2023-04-06T09:17:28;30.74;29.26;34.67;;
70740;Laerm;58330;51.888;11.052;2023-04-06T09:19:54;30.50;28.76;35.29;;
70740;Laerm;58330;51.888;11.052;2023-04-06T09:22:22;30.70;29.33;35.18;;
70740;Laerm;58330;51.888;11.052;2023-04-06T09:24:51;30.50;29.12;32.27;;
70740;Laerm;58330;51.888;11.052;2023-04-06T09:27:18;30.81;29.28;35.55;;
70740;Laerm;58330;51.888;11.052;2023-04-06T09:29:44;30.45;28.98;34.32;;
70740;Laerm;58330;51.888;11.052;2023-04-06T09:32:11;30.55;29.13;34.79;;
70740;Laerm;58330;51.888;11.052;2023-04-06T09:34:41;30.29;28.80;32.48;;
70740;Laerm;58330;51.888;11.052;2023-04-06T09:37:14;30.28;28.99;32.86;;
70740;Laerm;58330;51.888;11.052;2023-04-06T09:39:41;30.22;28.81;32.40;;
70740;Laerm;58330;51.888;11.052;2023-04-06T09:42:08;30.63;28.72;40.44;;
70740;Laerm;58330;51.888;11.052;2023-04-06T09:44:34;30.03;28.70;32.37;;
70740;Laerm;58330;51.888;11.052;2023-04-06T09:47:00;30.08;28.67;32.39;;
70740;Laerm;58330;51.888;11.052;2023-04-06T09:49:28;29.86;28.52;32.47;;
70740;Laerm;58330;51.888;11.052;2023-04-06T09:51:58;29.76;28.11;34.76;;
70740;Laerm;58330;51.888;11.052;2023-04-06T09:54:26;29.96;28.28;35.49;;
70740;Laerm;58330;51.888;11.052;2023-04-06T09:56:55;29.71;28.23;30.96;;
70740;Laerm;58330;51.888;11.052;2023-04-06T09:59:25;29.81;27.97;33.58;;
70740;Laerm;58330;51.888;11.052;2023-04-06T10:01:56;29.96;28.50;32.43;;
70740;Laerm;58330;51.888;11.052;2023-04-06T10:04:27;29.71;28.05;31.98;;
70740;Laerm;58330;51.888;11.052;2023-04-06T10:06:56;29.91;28.35;33.80;;
70740;Laerm;58330;51.888;11.052;2023-04-06T10:09:24;29.53;27.97;30.86;;
70740;Laerm;58330;51.888;11.052;2023-04-06T10:11:51;29.46;28.08;32.79;;
70740;Laerm;58330;51.888;11.052;2023-04-06T10:14:19;29.58;28.12;35.02;;
70740;Laerm;58330;51.888;11.052;2023-04-06T10:16:46;29.85;28.34;34.28;;
70740;Laerm;58330;51.888;11.052;2023-04-06T10:19:15;29.55;28.19;31.66;;
70740;Laerm;58330;51.888;11.052;2023-04-06T10:21:43;29.61;28.14;31.84;;
70740;Laerm;58330;51.888;11.052;2023-04-06T10:24:11;29.54;27.98;34.37;;
70740;Laerm;58330;51.888;11.052;2023-04-06T10:26:38;29.66;28.16;31.79;;
70740;Laerm;58330;51.888;11.052;2023-04-06T10:29:05;29.51;28.04;39.05;;
70740;Laerm;58330;51.888;11.052;2023-04-06T10:31:32;30.00;28.25;34.77;;
70740;Laerm;58330;51.888;11.052;2023-04-06T10:33:59;30.16;27.97;37.73;;
70740;Laerm;58330;51.888;11.052;2023-04-06T10:36:27;29.40;27.75;32.43;;
70740;Laerm;58330;51.888;11.052;2023-04-06T10:38:55;29.36;28.02;32.98;;
70740;Laerm;58330;51.888;11.052;2023-04-06T10:41:22;29.37;27.82;37.16;;
70740;Laerm;58330;51.888;11.052;2023-04-06T10:43:54;29.53;28.12;32.11;;
70740;Laerm;58330;51.888;11.052;2023-04-06T10:46:24;29.51;28.10;35.05;;
70740;Laerm;58330;51.888;11.052;2023-04-06T10:48:52;29.48;27.94;33.02;;
70740;Laerm;58330;51.888;11.052;2023-04-06T10:51:19;29.39;27.68;40.30;;
70740;Laerm;58330;51.888;11.052;2023-04-06T10:53:52;29.74;28.02;38.39;;
70740;Laerm;58330;51.888;11.052;2023-04-06T10:56:21;29.57;27.95;32.27;;
70740;Laerm;58330;51.888;11.052;2023-04-06T10:58:48;29.36;27.82;34.29;;
70740;Laerm;58330;51.888;11.052;2023-04-06T11:01:15;29.42;27.73;32.27;;
70740;Laerm;58330;51.888;11.052;2023-04-06T11:03:42;29.47;28.01;32.19;;
70740;Laerm;58330;51.888;11.052;2023-04-06T11:06:10;29.46;27.95;31.46;;
70740;Laerm;58330;51.888;11.052;2023-04-06T11:08:37;29.69;28.26;32.89;;
70740;Laerm;58330;51.888;11.052;2023-04-06T11:11:05;29.88;28.23;34.58;;
70740;Laerm;58330;51.888;11.052;2023-04-06T11:13:36;29.84;28.22;33.55;;
70740;Laerm;58330;51.888;11.052;2023-04-06T11:16:03;29.75;28.06;33.92;;
70740;Laerm;58330;51.888;11.052;2023-04-06T11:18:30;29.79;28.24;34.02;;
70740;Laerm;58330;51.888;11.052;2023-04-06T11:20:57;29.68;28.04;33.88;;
70740;Laerm;58330;51.888;11.052;2023-04-06T11:23:25;29.48;28.24;31.95;;
70740;Laerm;58330;51.888;11.052;2023-04-06T11:25:51;29.84;28.38;33.29;;
70740;Laerm;58330;51.888;11.052;2023-04-06T11:28:17;29.63;28.24;35.28;;
70740;Laerm;58330;51.888;11.052;2023-04-06T11:30:44;29.83;28.23;33.61;;
70740;Laerm;58330;51.888;11.052;2023-04-06T11:33:11;29.64;28.13;32.65;;
70740;Laerm;58330;51.888;11.052;2023-04-06T11:35:45;29.54;28.18;31.46;;
70740;Laerm;58330;51.888;11.052;2023-04-06T11:38:12;32.11;28.43;44.53;;
70740;Laerm;58330;51.888;11.052;2023-04-06T11:40:40;30.37;28.29;43.33;;
70740;Laerm;58330;51.888;11.052;2023-04-06T11:43:06;29.59;28.27;32.75;;
70740;Laerm;58330;51.888;11.052;2023-04-06T11:45:39;29.72;28.23;32.93;;
70740;Laerm;58330;51.888;11.052;2023-04-06T11:48:05;29.60;28.02;32.04;;
70740;Laerm;58330;51.888;11.052;2023-04-06T11:50:32;29.56;28.18;30.89;;
70740;Laerm;58330;51.888;11.052;2023-04-06T11:53:00;29.60;28.33;32.62;;
70740;Laerm;58330;51.888;11.052;2023-04-06T11:55:27;29.64;28.25;32.98;;
70740;Laerm;58330;51.888;11.052;2023-04-06T11:57:55;29.63;27.95;33.68;;
70740;Laerm;58330;51.888;11.052;2023-04-06T12:00:22;29.90;28.17;33.64;;
70740;Laerm;58330;51.888;11.052;2023-04-06T12:02:48;29.75;28.18;34.23;;
70740;Laerm;58330;51.888;11.052;2023-04-06T12:05:15;29.81;28.14;33.48;;
70740;Laerm;58330;51.888;11.052;2023-04-06T12:07:41;29.47;28.26;31.19;;
70740;Laerm;58330;51.888;11.052;2023-04-06T12:10:08;29.83;28.34;32.98;;
70740;Laerm;58330;51.888;11.052;2023-04-06T12:12:35;29.77;28.00;37.91;;
70740;Laerm;58330;51.888;11.052;2023-04-06T12:15:03;29.78;28.04;40.01;;
70740;Laerm;58330;51.888;11.052;2023-04-06T12:17:30;30.13;28.13;34.11;;
70740;Laerm;58330;51.888;11.052;2023-04-06T12:19:56;29.64;28.18;33.30;;
70740;Laerm;58330;51.888;11.052;2023-04-06T12:22:22;29.66;28.08;33.37;;
70740;Laerm;58330;51.888;11.052;2023-04-06T12:24:48;29.69;27.95;35.01;;
70740;Laerm;58330;51.888;11.052;2023-04-06T12:27:15;29.92;28.31;35.81;;
70740;Laerm;58330;51.888;11.052;2023-04-06T12:29:41;29.51;28.15;31.27;;
70740;Laerm;58330;51.888;11.052;2023-04-06T12:32:09;29.67;27.95;33.44;;
70740;Laerm;58330;51.888;11.052;2023-04-06T12:34:35;29.75;28.28;33.55;;
70740;Laerm;58330;51.888;11.052;2023-04-06T12:37:02;29.99;28.27;34.08;;
70740;Laerm;58330;51.888;11.052;2023-04-06T12:39:28;29.98;28.25;35.63;;
70740;Laerm;58330;51.888;11.052;2023-04-06T12:41:55;29.97;28.44;33.84;;
70740;Laerm;58330;51.888;11.052;2023-04-06T12:44:22;30.31;27.98;37.92;;
70740;Laerm;58330;51.888;11.052;2023-04-06T12:46:48;29.74;28.30;32.75;;
70740;Laerm;58330;51.888;11.052;2023-04-06T12:49:16;29.77;28.19;32.15;;
70740;Laerm;58330;51.888;11.052;2023-04-06T12:51:44;29.62;28.39;31.39;;
70740;Laerm;58330;51.888;11.052;2023-04-06T12:54:10;29.65;28.16;31.94;;
70740;Laerm;58330;51.888;11.052;2023-04-06T12:56:37;30.02;28.28;43.49;;
70740;Laerm;58330;51.888;11.052;2023-04-06T12:59:03;29.57;28.39;31.16;;
70740;Laerm;58330;51.888;11.052;2023-04-06T13:01:30;29.69;28.28;32.90;;
70740;Laerm;58330;51.888;11.052;2023-04-06T13:03:58;29.72;28.01;34.17;;
70740;Laerm;58330;51.888;11.052;2023-04-06T13:06:26;29.97;28.36;36.52;;
70740;Laerm;58330;51.888;11.052;2023-04-06T13:08:55;29.93;28.21;34.83;;
70740;Laerm;58330;51.888;11.052;2023-04-06T13:11:21;30.96;28.31;41.77;;
70740;Laerm;58330;51.888;11.052;2023-04-06T13:13:48;30.06;28.25;34.76;;
70740;Laerm;58330;51.888;11.052;2023-04-06T13:16:15;29.67;28.41;32.32;;
70740;Laerm;58330;51.888;11.052;2023-04-06T13:18:41;29.88;28.32;33.12;;
70740;Laerm;58330;51.888;11.052;2023-04-06T13:21:07;29.97;28.50;33.17;;
70740;Laerm;58330;51.888;11.052;2023-04-06T13:23:35;29.78;28.32;31.98;;
70740;Laerm;58330;51.888;11.052;2023-04-06T13:26:03;30.44;28.42;37.82;;
70740;Laerm;58330;51.888;11.052;2023-04-06T13:28:29;30.00;28.18;34.93;;
70740;Laerm;58330;51.888;11.052;2023-04-06T13:30:57;29.86;28.37;33.19;;